Time;durP1;ratioP1;P1;durP2;ratioP2;P2;SDS_P1;SDS_P2;PMS_P1;PMS_P2;Temp;Humidity;BMP_temperature;BMP_pressure;BME280_temperature;BME280_humidity;BME280_pressure;Samples;Min_cycle;Max_cycle;Signal;HPM_P1;HPM_P2
2022/03/02 00:02:26;;;;;;;134.40;50.30;;;;;;;;;;5046277;28;20486;-62
2022/03/02 00:04:52;;;;;;;124.23;47.33;;;;;;;;;;5046955;28;20560;-62
2022/03/02 00:07:19;;;;;;;145.77;53.57;;;;;;;;;;5047390;28;20483;-62
2022/03/02 00:09:46;;;;;;;153.17;55.90;;;;;;;;;;5047836;28;20531;-62
2022/03/02 00:12:12;;;;;;;165.87;57.23;;;;;;;;;;5047783;28;20432;-62
2022/03/02 00:14:39;;;;;;;148.47;52.40;;;;;;;;;;5047594;28;20432;-62
2022/03/02 00:17:05;;;;;;;143.13;51.27;;;;;;;;;;5047959;28;20903;-62
2022/03/02 00:19:33;;;;;;;141.33;50.37;;;;;;;;;;5047888;28;20459;-62
2022/03/02 00:22:00;;;;;;;133.87;50.97;;;;;;;;;;5047204;28;20459;-62
2022/03/02 00:24:27;;;;;;;135.83;49.37;;;;;;;;;;5047757;28;20456;-62
2022/03/02 00:26:54;;;;;;;125.23;47.93;;;;;;;;;;5047232;28;20534;-62
2022/03/02 00:29:20;;;;;;;128.60;47.30;;;;;;;;;;5050180;28;20513;-62
2022/03/02 00:31:47;;;;;;;126.50;47.00;;;;;;;;;;5051198;28;20546;-62
2022/03/02 00:34:13;;;;;;;124.57;45.50;;;;;;;;;;5051198;28;20510;-62
2022/03/02 00:36:40;;;;;;;126.63;45.33;;;;;;;;;;5050931;28;20425;-62
2022/03/02 00:39:06;;;;;;;122.40;44.03;;;;;;;;;;5051227;28;20453;-62
2022/03/02 00:41:33;;;;;;;126.57;46.43;;;;;;;;;;5044512;28;20520;-62
2022/03/02 00:44:00;;;;;;;114.47;42.43;;;;;;;;;;5030978;28;20960;-63
2022/03/02 00:46:29;;;;;;;131.43;45.83;;;;;;;;;;5029843;28;20437;-62
2022/03/02 00:48:56;;;;;;;121.23;45.10;;;;;;;;;;5031116;28;20430;-62
2022/03/02 00:51:23;;;;;;;118.20;44.30;;;;;;;;;;5046165;28;20441;-62
2022/03/02 00:53:50;;;;;;;135.97;46.77;;;;;;;;;;5050721;28;20433;-62
2022/03/02 00:56:17;;;;;;;119.20;44.17;;;;;;;;;;5051111;28;20515;-62
2022/03/02 00:58:44;;;;;;;119.80;43.57;;;;;;;;;;5050831;28;20465;-62
2022/03/02 01:01:11;;;;;;;120.93;44.83;;;;;;;;;;5050547;28;20442;-62
2022/03/02 01:03:37;;;;;;;121.77;43.23;;;;;;;;;;5050418;28;20474;-62
2022/03/02 01:39:10;;;;;;;111.40;39.10;;;;;;;;;;5029959;28;20441;-63
2022/03/02 01:41:37;;;;;;;108.13;38.40;;;;;;;;;;5036933;28;20437;-63
2022/03/02 01:44:03;;;;;;;117.97;39.87;;;;;;;;;;5049978;28;20476;-63
2022/03/02 01:46:30;;;;;;;105.07;41.57;;;;;;;;;;5049660;28;20430;-62
2022/03/02 01:48:57;;;;;;;121.00;42.30;;;;;;;;;;5049917;28;20726;-62
2022/03/02 01:51:23;;;;;;;115.77;43.63;;;;;;;;;;5049474;28;20434;-63
2022/03/02 01:53:50;;;;;;;120.17;43.43;;;;;;;;;;5049668;28;20441;-63
2022/03/02 01:56:17;;;;;;;119.13;44.83;;;;;;;;;;5048878;28;20461;-62
2022/03/02 01:58:44;;;;;;;109.00;40.07;;;;;;;;;;5049554;28;20433;-63
2022/03/02 02:01:11;;;;;;;110.13;41.63;;;;;;;;;;5049354;28;20440;-63
2022/03/02 02:03:38;;;;;;;113.77;42.50;;;;;;;;;;5049485;28;20467;-63
2022/03/02 02:06:05;;;;;;;106.47;41.10;;;;;;;;;;5049497;28;20436;-63
2022/03/02 02:08:31;;;;;;;110.87;40.53;;;;;;;;;;5049389;28;20426;-63
2022/03/02 02:10:58;;;;;;;98.80;39.33;;;;;;;;;;5049673;28;20436;-63
2022/03/02 02:13:25;;;;;;;96.77;39.60;;;;;;;;;;5049295;28;20989;-63
2022/03/02 02:15:52;;;;;;;102.40;39.17;;;;;;;;;;5049260;28;20428;-63
2022/03/02 02:18:19;;;;;;;111.47;39.27;;;;;;;;;;5048957;28;20461;-63
2022/03/02 02:20:46;;;;;;;94.60;38.17;;;;;;;;;;5049190;28;20430;-63
2022/03/02 02:23:13;;;;;;;91.53;37.20;;;;;;;;;;5049400;28;20595;-63
2022/03/02 02:25:39;;;;;;;108.20;38.57;;;;;;;;;;5049109;28;20430;-63
2022/03/02 02:28:07;;;;;;;96.73;38.30;;;;;;;;;;5039404;28;20511;-62
2022/03/02 02:30:33;;;;;;;102.70;37.57;;;;;;;;;;5027803;28;20934;-63
2022/03/02 02:33:00;;;;;;;102.47;37.70;;;;;;;;;;5029618;28;20849;-64
2022/03/02 02:35:27;;;;;;;104.27;38.77;;;;;;;;;;5031559;28;21010;-62
2022/03/02 02:37:54;;;;;;;97.37;37.57;;;;;;;;;;5031430;28;20435;-63
2022/03/02 02:40:21;;;;;;;105.17;38.33;;;;;;;;;;5028663;28;20756;-63
2022/03/02 02:42:48;;;;;;;107.77;38.33;;;;;;;;;;5045313;28;20507;-63
2022/03/02 02:45:17;;;;;;;101.30;37.37;;;;;;;;;;5042177;28;20478;-63
2022/03/02 02:47:44;;;;;;;107.40;39.97;;;;;;;;;;5028508;28;20420;-63
2022/03/02 02:50:14;;;;;;;98.90;36.87;;;;;;;;;;5029155;28;20445;-62
2022/03/02 02:52:41;;;;;;;97.37;37.60;;;;;;;;;;5028034;28;20840;-63
2022/03/02 02:55:08;;;;;;;95.57;35.80;;;;;;;;;;5028802;28;20496;-62
2022/03/02 02:57:35;;;;;;;88.73;36.83;;;;;;;;;;5028546;28;20439;-64
2022/03/02 03:00:01;;;;;;;95.13;36.53;;;;;;;;;;5028236;28;20528;-63
2022/03/02 03:02:28;;;;;;;89.13;34.53;;;;;;;;;;5028321;28;21355;-63
2022/03/02 03:04:54;;;;;;;95.20;37.13;;;;;;;;;;5028643;28;20469;-63
2022/03/02 03:07:21;;;;;;;92.57;34.90;;;;;;;;;;5028338;28;21081;-62
2022/03/02 03:09:47;;;;;;;93.50;36.17;;;;;;;;;;5033831;28;20947;-63
2022/03/02 03:12:14;;;;;;;99.17;35.63;;;;;;;;;;5048655;28;20934;-63
2022/03/02 03:14:41;;;;;;;82.97;33.97;;;;;;;;;;5047732;28;20969;-63
2022/03/02 03:17:07;;;;;;;88.50;33.53;;;;;;;;;;5048427;28;20470;-63
2022/03/02 03:19:34;;;;;;;80.80;33.50;;;;;;;;;;5036881;28;20440;-63
2022/03/02 03:22:05;;;;;;;80.90;32.07;;;;;;;;;;5029750;28;20524;-63
2022/03/02 03:24:32;;;;;;;85.53;31.53;;;;;;;;;;5028926;28;20478;-63
2022/03/02 03:26:58;;;;;;;74.73;30.77;;;;;;;;;;5028424;28;20465;-62
2022/03/02 03:29:25;;;;;;;100.13;40.58;;;;;;;;;;5028196;28;20425;-63
2022/03/02 03:31:51;;;;;;;76.63;33.00;;;;;;;;;;5028353;28;20220;-63
2022/03/02 03:34:18;;;;;;;82.43;32.70;;;;;;;;;;5028349;28;20443;-63
2022/03/02 03:36:44;;;;;;;72.93;30.77;;;;;;;;;;5028237;28;20475;-63
2022/03/02 03:39:11;;;;;;;75.33;30.93;;;;;;;;;;5028284;28;20436;-62
2022/03/02 03:41:37;;;;;;;73.73;31.00;;;;;;;;;;5035172;28;20530;-63
2022/03/02 03:44:04;;;;;;;76.37;33.30;;;;;;;;;;5047997;28;20478;-63
2022/03/02 03:46:31;;;;;;;75.60;32.17;;;;;;;;;;5048013;28;20415;-63
2022/03/02 03:48:58;;;;;;;75.90;32.40;;;;;;;;;;5031067;28;21277;-63
2022/03/02 03:51:25;;;;;;;69.03;30.43;;;;;;;;;;5028309;28;20485;-63
2022/03/02 03:53:52;;;;;;;88.63;34.57;;;;;;;;;;5028075;28;20440;-63
2022/03/02 03:56:19;;;;;;;82.23;32.07;;;;;;;;;;5028282;28;20426;-63
2022/03/02 03:58:46;;;;;;;79.37;31.43;;;;;;;;;;5028504;28;20889;-63
2022/03/02 04:01:12;;;;;;;77.80;31.83;;;;;;;;;;5038595;28;20426;-63
2022/03/02 04:03:39;;;;;;;77.40;31.20;;;;;;;;;;5039888;28;20617;-63
2022/03/02 04:06:06;;;;;;;73.97;30.00;;;;;;;;;;5031938;28;21028;-63
2022/03/02 04:08:32;;;;;;;83.93;29.77;;;;;;;;;;5045860;28;20438;-63
2022/03/02 04:10:59;;;;;;;67.83;29.37;;;;;;;;;;5050352;28;21417;-63
2022/03/02 04:13:26;;;;;;;76.87;29.23;;;;;;;;;;5051511;28;20433;-63
2022/03/02 04:15:53;;;;;;;71.50;30.30;;;;;;;;;;5047083;28;20471;-63
2022/03/02 04:18:20;;;;;;;84.37;30.67;;;;;;;;;;5031405;28;21083;-63
2022/03/02 04:20:46;;;;;;;67.57;28.23;;;;;;;;;;5031316;28;20924;-63
2022/03/02 04:23:13;;;;;;;67.07;28.50;;;;;;;;;;5031861;28;20462;-63
2022/03/02 04:25:39;;;;;;;70.90;30.47;;;;;;;;;;5031092;28;20438;-63
2022/03/02 04:28:06;;;;;;;77.33;28.93;;;;;;;;;;5031581;28;20435;-63
2022/03/02 04:30:32;;;;;;;77.60;30.73;;;;;;;;;;5030920;28;20543;-63
2022/03/02 04:32:59;;;;;;;74.67;29.53;;;;;;;;;;5035664;28;20439;-63
2022/03/02 04:35:26;;;;;;;80.77;29.77;;;;;;;;;;5051187;28;20457;-63
2022/03/02 04:37:52;;;;;;;86.77;30.70;;;;;;;;;;5051750;28;20470;-63
2022/03/02 04:40:19;;;;;;;76.93;31.67;;;;;;;;;;5051060;28;20516;-63
2022/03/02 04:42:45;;;;;;;78.73;31.43;;;;;;;;;;5051112;28;20788;-63
2022/03/02 04:45:12;;;;;;;78.33;31.90;;;;;;;;;;5050839;28;20428;-63
2022/03/02 04:47:39;;;;;;;75.43;30.40;;;;;;;;;;5045174;28;20447;-63
2022/03/02 04:50:06;;;;;;;77.20;28.93;;;;;;;;;;5031340;28;20503;-63
2022/03/02 04:52:32;;;;;;;69.40;29.27;;;;;;;;;;5030953;28;20880;-63
2022/03/02 04:55:09;;;;;;;84.90;32.43;;;;;;;;;;5030648;28;21175;-67
2022/03/02 04:57:44;;;;;;;78.73;31.27;;;;;;;;;;5040242;28;21121;-65
2022/03/02 05:00:15;;;;;;;74.97;31.40;;;;;;;;;;5044008;28;20514;-66
2022/03/02 05:02:42;;;;;;;89.50;31.60;;;;;;;;;;5042158;28;20439;-66
2022/03/02 05:05:09;;;;;;;69.40;28.77;;;;;;;;;;5045046;28;20505;-66
2022/03/02 05:07:36;;;;;;;74.20;29.30;;;;;;;;;;5043068;28;20955;-65
2022/03/02 05:10:03;;;;;;;86.60;32.73;;;;;;;;;;5045429;28;20421;-66
2022/03/02 05:12:29;;;;;;;92.97;34.63;;;;;;;;;;5043136;28;20446;-66
2022/03/02 05:14:56;;;;;;;97.43;34.87;;;;;;;;;;5044719;28;20490;-65
2022/03/02 05:17:23;;;;;;;95.57;36.47;;;;;;;;;;5045221;28;20427;-65
2022/03/02 05:19:50;;;;;;;90.53;34.87;;;;;;;;;;5044814;28;20519;-67
2022/03/02 05:22:16;;;;;;;105.07;39.10;;;;;;;;;;5044011;28;21109;-67
2022/03/02 05:24:43;;;;;;;121.37;42.97;;;;;;;;;;5026072;28;20487;-67
2022/03/02 05:27:10;;;;;;;105.27;40.87;;;;;;;;;;5043071;28;20430;-67
2022/03/02 05:29:37;;;;;;;91.53;34.23;;;;;;;;;;5043861;28;20477;-67
2022/03/02 05:32:04;;;;;;;91.83;35.27;;;;;;;;;;5041650;28;20964;-67
2022/03/02 05:34:31;;;;;;;93.40;35.13;;;;;;;;;;5042388;28;20448;-67
2022/03/02 05:36:58;;;;;;;98.90;38.00;;;;;;;;;;5043857;28;20427;-67
2022/03/02 05:39:24;;;;;;;95.50;38.00;;;;;;;;;;5042249;28;20438;-65
2022/03/02 05:41:51;;;;;;;105.73;39.57;;;;;;;;;;5024767;28;20536;-67
2022/03/02 05:44:18;;;;;;;91.47;37.00;;;;;;;;;;5043515;28;20990;-66
2022/03/02 05:46:45;;;;;;;104.33;37.70;;;;;;;;;;5042111;28;20424;-67
2022/03/02 05:49:13;;;;;;;98.07;38.40;;;;;;;;;;5040955;28;20446;-67
2022/03/02 05:51:39;;;;;;;108.17;40.07;;;;;;;;;;5040987;28;20556;-66
2022/03/02 05:54:08;;;;;;;97.83;38.90;;;;;;;;;;5057693;28;20435;-65
2022/03/02 05:56:37;;;;;;;99.77;39.27;;;;;;;;;;5065041;28;20419;-65
2022/03/02 05:59:04;;;;;;;99.53;37.50;;;;;;;;;;5049716;28;20444;-65
2022/03/02 06:01:31;;;;;;;103.43;38.33;;;;;;;;;;5049258;28;20423;-66
2022/03/02 06:03:58;;;;;;;102.93;39.33;;;;;;;;;;5049314;28;21350;-65
2022/03/02 06:06:38;;;;;;;95.03;37.47;;;;;;;;;;5047762;28;20429;-66
2022/03/02 06:09:05;;;;;;;95.83;38.23;;;;;;;;;;5034099;28;20479;-65
2022/03/02 06:11:32;;;;;;;101.03;39.07;;;;;;;;;;5048678;28;20433;-67
2022/03/02 06:13:59;;;;;;;85.83;36.80;;;;;;;;;;5060265;28;20428;-66
2022/03/02 06:16:26;;;;;;;104.23;40.47;;;;;;;;;;5068981;28;20493;-66
2022/03/02 06:18:53;;;;;;;99.27;37.73;;;;;;;;;;5051815;28;20452;-66
2022/03/02 06:21:27;;;;;;;92.57;37.50;;;;;;;;;;5042565;28;20433;-66
2022/03/02 06:23:54;;;;;;;87.33;35.90;;;;;;;;;;5041912;28;20477;-66
2022/03/02 06:26:23;;;;;;;90.27;35.60;;;;;;;;;;5040615;28;20448;-66
2022/03/02 06:28:50;;;;;;;82.30;35.00;;;;;;;;;;5042445;28;21327;-66
2022/03/02 06:31:18;;;;;;;82.87;36.17;;;;;;;;;;5039924;28;20514;-66
2022/03/02 06:33:45;;;;;;;85.53;34.60;;;;;;;;;;5042227;28;20429;-66
2022/03/02 06:36:11;;;;;;;86.30;35.40;;;;;;;;;;5041938;28;20458;-66
2022/03/02 06:38:38;;;;;;;82.97;35.80;;;;;;;;;;5043348;28;20522;-65
2022/03/02 06:41:05;;;;;;;90.10;37.53;;;;;;;;;;5048654;28;20459;-63
2022/03/02 06:43:33;;;;;;;95.43;37.97;;;;;;;;;;5048663;28;20476;-63
2022/03/02 06:46:00;;;;;;;97.53;38.87;;;;;;;;;;5048439;28;21321;-63
2022/03/02 06:48:30;;;;;;;89.43;37.00;;;;;;;;;;5047668;28;20797;-63
2022/03/02 06:50:58;;;;;;;96.13;38.10;;;;;;;;;;5048711;28;20457;-63
2022/03/02 06:53:28;;;;;;;91.57;37.13;;;;;;;;;;5048916;28;20498;-63
2022/03/02 06:55:55;;;;;;;101.93;38.70;;;;;;;;;;5048982;28;20421;-63
2022/03/02 06:58:21;;;;;;;91.50;38.70;;;;;;;;;;5048366;28;20426;-65
2022/03/02 07:00:51;;;;;;;94.37;37.63;;;;;;;;;;5047239;28;20425;-65
2022/03/02 07:03:18;;;;;;;91.97;40.07;;;;;;;;;;5048259;28;20437;-66
2022/03/02 07:05:48;;;;;;;108.80;41.13;;;;;;;;;;5048567;28;20453;-65
2022/03/02 07:08:15;;;;;;;101.37;41.60;;;;;;;;;;5048387;28;20440;-65
2022/03/02 07:10:42;;;;;;;97.57;40.20;;;;;;;;;;5042285;28;20430;-65
2022/03/02 07:13:09;;;;;;;96.50;39.77;;;;;;;;;;5042238;28;20960;-66
2022/03/02 07:15:36;;;;;;;96.00;40.70;;;;;;;;;;5040918;28;20429;-66
2022/03/02 07:18:03;;;;;;;96.90;43.50;;;;;;;;;;5042075;28;20544;-65
2022/03/02 07:20:29;;;;;;;104.00;46.17;;;;;;;;;;5042692;28;20422;-65
2022/03/02 07:22:56;;;;;;;97.83;41.87;;;;;;;;;;5042408;28;20819;-66
2022/03/02 07:25:29;;;;;;;96.67;42.53;;;;;;;;;;5041349;28;20476;-66
2022/03/02 07:27:56;;;;;;;89.67;42.63;;;;;;;;;;5025151;28;20433;-67
2022/03/02 07:30:23;;;;;;;84.73;43.27;;;;;;;;;;5041064;28;20433;-67
2022/03/02 07:32:52;;;;;;;92.47;44.87;;;;;;;;;;5041448;28;20545;-66
2022/03/02 07:35:18;;;;;;;85.50;42.60;;;;;;;;;;5025211;28;21098;-66
2022/03/02 07:37:45;;;;;;;89.20;45.43;;;;;;;;;;5044510;28;20202;-66
2022/03/02 07:40:12;;;;;;;80.80;43.97;;;;;;;;;;5047097;28;20292;-66
2022/03/02 07:42:39;;;;;;;82.10;44.43;;;;;;;;;;5044737;28;20302;-67
2022/03/02 07:45:06;;;;;;;88.03;44.73;;;;;;;;;;5046756;28;20222;-67
2022/03/02 07:47:33;;;;;;;79.60;42.77;;;;;;;;;;5046234;28;20190;-66
2022/03/02 07:50:00;;;;;;;79.10;42.00;;;;;;;;;;5046571;28;20217;-67
2022/03/02 07:52:28;;;;;;;66.90;40.30;;;;;;;;;;5044680;28;21778;-67
2022/03/02 07:54:57;;;;;;;74.90;40.67;;;;;;;;;;5044979;28;20220;-67
2022/03/02 07:57:24;;;;;;;70.57;38.83;;;;;;;;;;5045073;28;20244;-67
2022/03/02 07:59:51;;;;;;;58.53;33.47;;;;;;;;;;5045477;28;20190;-67
2022/03/02 08:02:19;;;;;;;55.63;33.23;;;;;;;;;;5044530;28;20226;-67
2022/03/02 08:04:50;;;;;;;54.67;31.27;;;;;;;;;;5042683;28;20238;-67
2022/03/02 08:07:17;;;;;;;54.47;32.37;;;;;;;;;;5044004;28;20202;-68
2022/03/02 08:09:44;;;;;;;39.30;23.30;;;;;;;;;;5044647;28;20682;-68
2022/03/02 08:12:12;;;;;;;41.47;24.67;;;;;;;;;;5044697;28;20546;-67
2022/03/02 08:14:40;;;;;;;38.20;23.07;;;;;;;;;;5045167;28;20222;-67
2022/03/02 08:17:10;;;;;;;42.27;23.40;;;;;;;;;;5045705;28;20249;-66
2022/03/02 08:19:37;;;;;;;41.83;21.17;;;;;;;;;;5044878;28;20198;-65
2022/03/02 08:22:05;;;;;;;42.00;22.17;;;;;;;;;;5045468;28;20558;-67
2022/03/02 08:24:32;;;;;;;32.10;19.10;;;;;;;;;;5044615;28;20217;-65
2022/03/02 08:26:59;;;;;;;35.07;20.17;;;;;;;;;;5044073;28;20195;-66
2022/03/02 08:29:27;;;;;;;35.30;20.43;;;;;;;;;;5026729;28;21082;-67
2022/03/02 08:31:54;;;;;;;41.70;20.67;;;;;;;;;;5044590;28;20191;-67
2022/03/02 08:34:20;;;;;;;35.23;19.43;;;;;;;;;;5042914;28;20662;-64
2022/03/02 08:36:47;;;;;;;34.67;19.30;;;;;;;;;;5044865;28;20195;-65
2022/03/02 08:39:14;;;;;;;33.53;19.03;;;;;;;;;;5043539;28;20191;-65
2022/03/02 08:41:41;;;;;;;33.53;19.33;;;;;;;;;;5044799;28;20206;-65
2022/03/02 08:44:08;;;;;;;33.30;19.93;;;;;;;;;;5044222;28;20202;-65
2022/03/02 08:46:35;;;;;;;43.27;21.53;;;;;;;;;;5044916;28;20244;-63
2022/03/02 08:49:02;;;;;;;35.77;19.30;;;;;;;;;;5042739;28;20191;-64
2022/03/02 08:51:29;;;;;;;29.93;16.30;;;;;;;;;;5045217;28;20206;-63
2022/03/02 08:54:01;;;;;;;27.37;16.40;;;;;;;;;;5043407;28;20198;-63
2022/03/02 08:56:27;;;;;;;24.67;15.03;;;;;;;;;;5043787;28;20314;-64
2022/03/02 08:58:54;;;;;;;24.10;14.93;;;;;;;;;;5045177;28;20232;-64
2022/03/02 09:01:25;;;;;;;22.10;13.47;;;;;;;;;;5044212;28;20190;-65
2022/03/02 09:03:53;;;;;;;22.13;13.57;;;;;;;;;;5042352;28;20314;-66
2022/03/02 09:06:20;;;;;;;22.17;14.00;;;;;;;;;;5042910;28;20289;-63
2022/03/02 09:08:47;;;;;;;28.03;16.37;;;;;;;;;;5044551;28;20934;-64
2022/03/02 09:11:14;;;;;;;25.07;13.57;;;;;;;;;;5044565;28;20209;-64
2022/03/02 09:13:41;;;;;;;22.43;13.17;;;;;;;;;;5044447;28;20795;-65
2022/03/02 09:16:08;;;;;;;23.83;13.43;;;;;;;;;;5043562;28;20606;-64
2022/03/02 09:18:35;;;;;;;18.63;11.77;;;;;;;;;;5045200;28;20857;-64
2022/03/02 09:21:03;;;;;;;17.33;12.30;;;;;;;;;;5044372;28;21079;-66
2022/03/02 09:23:30;;;;;;;20.23;12.70;;;;;;;;;;5043106;28;20191;-65
2022/03/02 09:25:58;;;;;;;19.83;11.80;;;;;;;;;;5043321;28;20306;-67
2022/03/02 09:28:26;;;;;;;19.97;12.73;;;;;;;;;;5009591;28;20244;-68
2022/03/02 09:30:53;;;;;;;17.00;10.73;;;;;;;;;;5041710;28;20198;-68
2022/03/02 09:33:20;;;;;;;20.13;11.73;;;;;;;;;;5041857;28;20194;-66
2022/03/02 09:35:52;;;;;;;14.70;9.20;;;;;;;;;;5040949;28;20273;-67
2022/03/02 09:38:20;;;;;;;18.53;9.60;;;;;;;;;;5042763;28;20187;-66
2022/03/02 09:40:47;;;;;;;15.97;10.67;;;;;;;;;;5043790;28;20194;-65
2022/03/02 09:43:15;;;;;;;16.60;10.10;;;;;;;;;;5043227;28;20183;-67
2022/03/02 09:45:42;;;;;;;17.10;10.50;;;;;;;;;;5042789;28;20233;-67
2022/03/02 09:48:12;;;;;;;17.83;10.47;;;;;;;;;;5043282;28;20205;-66
2022/03/02 09:50:39;;;;;;;15.47;9.73;;;;;;;;;;5042764;28;20191;-66
2022/03/02 09:53:12;;;;;;;16.07;8.90;;;;;;;;;;5044009;28;20890;-66
2022/03/02 09:55:42;;;;;;;13.80;8.60;;;;;;;;;;5043351;28;20195;-65
2022/03/02 09:58:10;;;;;;;14.43;8.40;;;;;;;;;;5042522;28;20191;-65
2022/03/02 10:00:37;;;;;;;14.47;9.03;;;;;;;;;;5040781;28;20237;-66
2022/03/02 10:03:04;;;;;;;16.27;9.77;;;;;;;;;;5042232;28;20261;-66
2022/03/02 10:05:32;;;;;;;15.90;9.00;;;;;;;;;;5024576;28;20245;-64
2022/03/02 10:07:58;;;;;;;17.63;9.20;;;;;;;;;;5043789;28;20264;-67
2022/03/02 10:10:27;;;;;;;17.00;9.67;;;;;;;;;;5043992;28;20278;-66
2022/03/02 10:12:55;;;;;;;17.30;10.13;;;;;;;;;;5041065;28;20201;-65
2022/03/02 10:15:22;;;;;;;17.13;9.63;;;;;;;;;;5043413;28;20191;-66
2022/03/02 10:17:56;;;;;;;17.73;10.30;;;;;;;;;;5042156;28;20305;-67
2022/03/02 10:20:30;;;;;;;15.53;9.20;;;;;;;;;;5041693;28;20590;-66
2022/03/02 10:23:01;;;;;;;15.20;9.43;;;;;;;;;;5041568;28;20573;-66
2022/03/02 10:25:51;;;;;;;15.80;10.20;;;;;;;;;;5042624;28;20298;-65
2022/03/02 10:28:25;;;;;;;16.10;9.60;;;;;;;;;;5059476;28;20628;-66
2022/03/02 10:31:03;;;;;;;17.10;10.17;;;;;;;;;;5040558;28;20193;-67
2022/03/02 10:33:30;;;;;;;16.67;8.87;;;;;;;;;;5042400;28;20199;-65
2022/03/02 10:36:03;;;;;;;13.50;7.50;;;;;;;;;;5043330;28;20544;-66
2022/03/02 10:38:39;;;;;;;13.00;8.33;;;;;;;;;;5040759;28;20190;-67
2022/03/02 10:41:07;;;;;;;15.23;7.97;;;;;;;;;;5043492;28;20186;-66
2022/03/02 10:43:39;;;;;;;15.03;7.57;;;;;;;;;;5040976;28;20287;-65
2022/03/02 10:46:06;;;;;;;16.17;9.30;;;;;;;;;;5043085;28;20283;-66
2022/03/02 10:48:47;;;;;;;15.93;9.27;;;;;;;;;;5025934;28;20191;-64
2022/03/02 10:51:14;;;;;;;17.07;9.23;;;;;;;;;;5043270;28;20260;-65
2022/03/02 10:53:41;;;;;;;14.07;8.30;;;;;;;;;;5043111;28;20298;-64
2022/03/02 10:56:08;;;;;;;14.03;7.57;;;;;;;;;;5043509;28;20554;-64
2022/03/02 10:58:35;;;;;;;14.23;8.20;;;;;;;;;;5042139;28;20738;-65
2022/03/02 11:01:02;;;;;;;14.00;8.43;;;;;;;;;;5039944;28;20197;-66
2022/03/02 11:03:34;;;;;;;15.57;8.23;;;;;;;;;;5039995;28;20206;-65
2022/03/02 11:06:01;;;;;;;16.00;8.57;;;;;;;;;;5042227;28;20214;-66
2022/03/02 11:08:31;;;;;;;15.93;8.50;;;;;;;;;;5041533;28;20286;-66
2022/03/02 11:10:58;;;;;;;15.53;7.97;;;;;;;;;;5025385;28;20233;-66
2022/03/02 11:13:25;;;;;;;15.17;8.10;;;;;;;;;;5041651;28;20786;-66
2022/03/02 11:15:53;;;;;;;14.43;9.00;;;;;;;;;;5038781;28;20226;-66
2022/03/02 11:18:36;;;;;;;12.63;8.37;;;;;;;;;;5041883;28;20253;-65
2022/03/02 11:21:14;;;;;;;14.83;8.80;;;;;;;;;;5041227;28;20252;-65
2022/03/02 11:23:45;;;;;;;21.53;11.50;;;;;;;;;;5042062;28;20284;-66
2022/03/02 11:26:14;;;;;;;12.57;8.00;;;;;;;;;;5041005;28;20222;-66
2022/03/02 11:28:48;;;;;;;14.43;8.53;;;;;;;;;;5041157;28;20210;-65
2022/03/02 11:31:23;;;;;;;16.00;9.10;;;;;;;;;;5042418;28;20248;-66
2022/03/02 11:33:50;;;;;;;16.27;11.10;;;;;;;;;;5040940;28;20254;-66
2022/03/02 11:36:18;;;;;;;15.30;8.30;;;;;;;;;;5025406;28;20199;-66
2022/03/02 11:38:46;;;;;;;17.43;8.30;;;;;;;;;;5042438;28;20190;-66
2022/03/02 11:41:13;;;;;;;13.17;8.03;;;;;;;;;;5041674;28;20212;-66
2022/03/02 11:43:40;;;;;;;12.93;7.70;;;;;;;;;;5041333;28;20226;-66
2022/03/02 11:46:10;;;;;;;15.80;8.70;;;;;;;;;;5041260;28;20257;-66
2022/03/02 11:48:41;;;;;;;16.07;8.73;;;;;;;;;;5041286;28;20206;-66
2022/03/02 11:51:13;;;;;;;15.13;9.20;;;;;;;;;;5042932;28;20278;-67
2022/03/02 11:53:47;;;;;;;15.67;10.30;;;;;;;;;;5041754;28;20236;-66
2022/03/02 11:56:15;;;;;;;15.03;8.97;;;;;;;;;;5042373;28;20768;-66
2022/03/02 11:59:00;;;;;;;15.67;9.03;;;;;;;;;;5040254;28;20191;-64
2022/03/02 12:01:50;;;;;;;15.57;10.13;;;;;;;;;;5039971;28;21189;-65
2022/03/02 12:04:28;;;;;;;16.33;9.80;;;;;;;;;;5038368;28;20950;-66
2022/03/02 12:06:55;;;;;;;28.57;18.97;;;;;;;;;;5039993;28;20223;-65
2022/03/02 12:09:23;;;;;;;18.07;10.07;;;;;;;;;;5040978;28;21072;-65
2022/03/02 12:11:49;;;;;;;25.00;14.60;;;;;;;;;;5041719;28;20201;-66
2022/03/02 12:14:16;;;;;;;14.77;8.50;;;;;;;;;;5041589;28;20191;-67
2022/03/02 12:16:44;;;;;;;21.00;13.00;;;;;;;;;;5039581;28;20195;-67
2022/03/02 12:19:24;;;;;;;13.50;8.60;;;;;;;;;;5041250;28;20194;-66
2022/03/02 12:21:53;;;;;;;14.17;8.53;;;;;;;;;;5042164;28;20582;-64
2022/03/02 12:24:26;;;;;;;15.87;9.37;;;;;;;;;;5041906;28;20199;-65
2022/03/02 12:26:58;;;;;;;20.33;12.17;;;;;;;;;;5044047;28;20217;-66
2022/03/02 12:29:26;;;;;;;14.77;9.47;;;;;;;;;;5044152;28;20183;-66
2022/03/02 12:32:14;;;;;;;13.37;8.10;;;;;;;;;;5045687;28;20182;-64
2022/03/02 12:34:45;;;;;;;12.83;7.63;;;;;;;;;;5027069;28;20297;-64
2022/03/02 12:37:12;;;;;;;13.37;7.83;;;;;;;;;;5044967;28;20592;-65
2022/03/02 12:39:39;;;;;;;20.23;12.13;;;;;;;;;;5042821;28;20187;-66
2022/03/02 12:42:09;;;;;;;13.77;7.53;;;;;;;;;;5041461;28;20317;-66
2022/03/02 12:44:40;;;;;;;27.23;15.43;;;;;;;;;;5044634;28;20197;-67
2022/03/02 12:47:08;;;;;;;14.70;8.73;;;;;;;;;;5044444;28;20616;-67
2022/03/02 12:49:36;;;;;;;13.60;7.53;;;;;;;;;;5045156;28;20202;-68
2022/03/02 12:52:03;;;;;;;15.37;8.50;;;;;;;;;;5043779;28;20217;-67
2022/03/02 12:54:31;;;;;;;10.57;6.53;;;;;;;;;;5042791;28;20190;-65
2022/03/02 12:56:58;;;;;;;12.83;7.50;;;;;;;;;;5043977;28;20199;-64
2022/03/02 12:59:25;;;;;;;13.90;7.57;;;;;;;;;;5043683;28;20190;-64
2022/03/02 13:01:52;;;;;;;14.53;7.63;;;;;;;;;;5043411;28;20183;-65
2022/03/02 13:04:22;;;;;;;12.73;7.53;;;;;;;;;;5043047;28;20246;-66
2022/03/02 13:06:51;;;;;;;13.47;7.80;;;;;;;;;;5026625;28;20261;-66
2022/03/02 13:09:18;;;;;;;13.27;7.83;;;;;;;;;;5044310;28;20183;-67
2022/03/02 13:11:45;;;;;;;13.87;7.60;;;;;;;;;;5042640;28;20698;-66
2022/03/02 13:14:31;;;;;;;11.10;7.50;;;;;;;;;;5042353;28;20179;-67
2022/03/02 13:17:15;;;;;;;12.63;8.07;;;;;;;;;;5043900;28;20932;-67
2022/03/02 13:19:56;;;;;;;12.43;8.20;;;;;;;;;;5043139;28;20971;-66
2022/03/02 13:22:26;;;;;;;12.47;7.43;;;;;;;;;;5043368;28;20274;-68
2022/03/02 13:24:54;;;;;;;13.47;7.40;;;;;;;;;;5043400;28;20189;-68
2022/03/02 13:27:21;;;;;;;13.23;8.03;;;;;;;;;;5043818;28;20248;-69
2022/03/02 13:29:49;;;;;;;15.60;8.57;;;;;;;;;;5043331;28;20296;-68
2022/03/02 13:32:16;;;;;;;15.03;8.10;;;;;;;;;;5043391;28;20253;-69
2022/03/02 13:35:03;;;;;;;13.87;8.70;;;;;;;;;;5042473;28;20273;-68
2022/03/02 13:37:50;;;;;;;16.37;8.70;;;;;;;;;;5042801;28;20189;-67
2022/03/02 13:40:32;;;;;;;15.30;9.77;;;;;;;;;;5044399;28;20203;-68
2022/03/02 13:43:05;;;;;;;18.80;11.70;;;;;;;;;;5042656;28;20198;-67
2022/03/02 13:45:32;;;;;;;15.37;9.30;;;;;;;;;;5043814;28;20286;-68
2022/03/02 13:48:17;;;;;;;14.30;8.90;;;;;;;;;;5043928;28;20809;-67
2022/03/02 13:50:57;;;;;;;16.20;9.47;;;;;;;;;;5039729;28;20764;-66
2022/03/02 13:53:31;;;;;;;14.47;8.40;;;;;;;;;;5042238;28;20278;-67
2022/03/02 13:56:03;;;;;;;15.57;8.97;;;;;;;;;;5044507;28;20276;-68
2022/03/02 13:58:30;;;;;;;16.83;9.57;;;;;;;;;;5043699;28;20214;-68
2022/03/02 14:01:13;;;;;;;15.43;9.50;;;;;;;;;;5042602;28;20190;-67
2022/03/02 14:03:59;;;;;;;16.50;10.30;;;;;;;;;;5044020;28;20190;-67
2022/03/02 14:06:25;;;;;;;16.87;9.87;;;;;;;;;;5043079;28;20925;-67
2022/03/02 14:08:53;;;;;;;14.63;8.30;;;;;;;;;;5043208;28;20193;-68
2022/03/02 14:11:39;;;;;;;17.93;10.57;;;;;;;;;;5041860;28;20189;-67
2022/03/02 14:14:07;;;;;;;14.63;8.70;;;;;;;;;;5042968;28;20249;-67
2022/03/02 14:16:34;;;;;;;16.97;8.93;;;;;;;;;;5042667;28;20198;-65
2022/03/02 14:19:07;;;;;;;16.23;8.90;;;;;;;;;;5042096;28;20233;-66
2022/03/02 14:21:34;;;;;;;17.97;8.77;;;;;;;;;;5043650;28;20202;-66
2022/03/02 14:24:14;;;;;;;15.33;8.43;;;;;;;;;;5041067;28;21018;-65
2022/03/02 14:26:59;;;;;;;16.07;8.30;;;;;;;;;;5024570;28;20250;-67
2022/03/02 14:29:30;;;;;;;11.73;7.80;;;;;;;;;;5040510;28;20248;-66
2022/03/02 14:31:56;;;;;;;14.93;7.90;;;;;;;;;;5042220;28;21090;-65
2022/03/02 14:34:24;;;;;;;12.47;8.30;;;;;;;;;;5043065;28;20715;-68
2022/03/02 14:37:06;;;;;;;14.77;8.20;;;;;;;;;;5040415;28;20302;-68
2022/03/02 14:39:33;;;;;;;16.33;9.03;;;;;;;;;;5042055;28;20207;-68
2022/03/02 14:42:14;;;;;;;15.97;8.97;;;;;;;;;;5042163;28;20206;-68
2022/03/02 14:44:41;;;;;;;16.17;8.60;;;;;;;;;;5042506;28;20208;-68
2022/03/02 14:47:23;;;;;;;13.30;8.40;;;;;;;;;;5043296;28;20268;-68
2022/03/02 14:49:51;;;;;;;13.40;8.13;;;;;;;;;;5041264;28;20226;-67
2022/03/02 14:52:44;;;;;;;12.77;8.33;;;;;;;;;;5024279;28;20665;-68
2022/03/02 14:55:19;;;;;;;13.10;8.20;;;;;;;;;;5040337;28;20206;-66
2022/03/02 14:57:46;;;;;;;13.67;7.70;;;;;;;;;;5041057;28;20691;-67
2022/03/02 15:00:13;;;;;;;16.30;8.60;;;;;;;;;;5040787;28;20760;-66
2022/03/02 15:02:40;;;;;;;13.60;8.27;;;;;;;;;;5041757;28;20252;-65